sensor_id;sensor_type;location;lat;lon;timestamp;P1;durP1;ratioP1;P2;durP2;ratioP2
3261;SDS011;1643;47.746;9.000;2024-03-08T00:02:16;23.03;;;14.27;;
3261;SDS011;1643;47.746;9.000;2024-03-08T00:04:42;22.63;;;13.40;;
3261;SDS011;1643;47.746;9.000;2024-03-08T00:07:07;22.10;;;14.27;;
3261;SDS011;1643;47.746;9.000;2024-03-08T00:09:33;20.70;;;13.97;;
3261;SDS011;1643;47.746;9.000;2024-03-08T00:11:59;21.67;;;13.43;;
3261;SDS011;1643;47.746;9.000;2024-03-08T00:14:24;20.77;;;14.47;;
3261;SDS011;1643;47.746;9.000;2024-03-08T00:16:50;34.60;;;13.47;;
3261;SDS011;1643;47.746;9.000;2024-03-08T00:19:17;23.77;;;14.10;;
3261;SDS011;1643;47.746;9.000;2024-03-08T00:21:43;21.50;;;13.53;;
3261;SDS011;1643;47.746;9.000;2024-03-08T00:24:10;22.93;;;14.53;;
3261;SDS011;1643;47.746;9.000;2024-03-08T00:26:35;23.90;;;13.63;;
3261;SDS011;1643;47.746;9.000;2024-03-08T00:29:01;21.67;;;12.90;;
3261;SDS011;1643;47.746;9.000;2024-03-08T00:31:28;26.50;;;15.20;;
3261;SDS011;1643;47.746;9.000;2024-03-08T00:33:55;29.30;;;13.73;;
3261;SDS011;1643;47.746;9.000;2024-03-08T00:36:22;19.60;;;13.53;;
3261;SDS011;1643;47.746;9.000;2024-03-08T00:38:47;19.30;;;11.40;;
3261;SDS011;1643;47.746;9.000;2024-03-08T00:41:13;25.03;;;14.53;;
3261;SDS011;1643;47.746;9.000;2024-03-08T00:43:39;23.93;;;13.07;;
3261;SDS011;1643;47.746;9.000;2024-03-08T00:46:04;21.07;;;12.30;;
3261;SDS011;1643;47.746;9.000;2024-03-08T00:48:30;19.47;;;12.13;;
3261;SDS011;1643;47.746;9.000;2024-03-08T00:50:56;21.30;;;13.60;;
3261;SDS011;1643;47.746;9.000;2024-03-08T00:53:22;33.73;;;14.03;;
3261;SDS011;1643;47.746;9.000;2024-03-08T00:55:48;15.60;;;10.50;;
3261;SDS011;1643;47.746;9.000;2024-03-08T00:58:13;21.20;;;12.73;;
3261;SDS011;1643;47.746;9.000;2024-03-08T01:00:39;17.80;;;11.80;;
3261;SDS011;1643;47.746;9.000;2024-03-08T01:03:05;18.27;;;12.10;;
3261;SDS011;1643;47.746;9.000;2024-03-08T01:05:31;18.00;;;11.77;;
3261;SDS011;1643;47.746;9.000;2024-03-08T01:07:57;21.50;;;13.03;;
3261;SDS011;1643;47.746;9.000;2024-03-08T01:10:23;21.00;;;12.80;;
3261;SDS011;1643;47.746;9.000;2024-03-08T01:12:49;19.20;;;11.37;;
3261;SDS011;1643;47.746;9.000;2024-03-08T01:15:14;23.47;;;14.37;;
3261;SDS011;1643;47.746;9.000;2024-03-08T01:17:40;18.23;;;11.87;;
3261;SDS011;1643;47.746;9.000;2024-03-08T01:20:09;21.80;;;13.70;;
3261;SDS011;1643;47.746;9.000;2024-03-08T01:22:37;20.73;;;12.20;;
3261;SDS011;1643;47.746;9.000;2024-03-08T01:25:03;19.97;;;12.33;;
3261;SDS011;1643;47.746;9.000;2024-03-08T01:27:30;18.40;;;11.70;;
3261;SDS011;1643;47.746;9.000;2024-03-08T01:29:56;18.73;;;11.60;;
3261;SDS011;1643;47.746;9.000;2024-03-08T01:32:21;18.20;;;11.30;;
3261;SDS011;1643;47.746;9.000;2024-03-08T01:34:48;19.33;;;12.60;;
3261;SDS011;1643;47.746;9.000;2024-03-08T01:37:14;21.23;;;12.10;;
3261;SDS011;1643;47.746;9.000;2024-03-08T01:39:40;17.60;;;11.87;;
3261;SDS011;1643;47.746;9.000;2024-03-08T01:42:05;16.93;;;11.63;;
3261;SDS011;1643;47.746;9.000;2024-03-08T01:44:31;17.73;;;11.80;;
3261;SDS011;1643;47.746;9.000;2024-03-08T01:46:57;19.43;;;12.37;;
3261;SDS011;1643;47.746;9.000;2024-03-08T01:49:22;20.17;;;12.60;;
3261;SDS011;1643;47.746;9.000;2024-03-08T01:51:50;23.17;;;12.07;;
3261;SDS011;1643;47.746;9.000;2024-03-08T01:54:16;18.57;;;11.37;;
3261;SDS011;1643;47.746;9.000;2024-03-08T01:56:43;20.20;;;11.80;;
3261;SDS011;1643;47.746;9.000;2024-03-08T01:59:09;21.70;;;11.70;;
3261;SDS011;1643;47.746;9.000;2024-03-08T02:01:35;18.40;;;11.47;;
3261;SDS011;1643;47.746;9.000;2024-03-08T02:04:01;18.70;;;10.93;;
3261;SDS011;1643;47.746;9.000;2024-03-08T02:06:26;18.70;;;10.73;;
3261;SDS011;1643;47.746;9.000;2024-03-08T02:08:52;20.43;;;10.90;;
3261;SDS011;1643;47.746;9.000;2024-03-08T02:11:18;17.37;;;11.37;;
3261;SDS011;1643;47.746;9.000;2024-03-08T02:13:45;20.50;;;11.20;;
3261;SDS011;1643;47.746;9.000;2024-03-08T02:16:11;17.33;;;10.87;;
3261;SDS011;1643;47.746;9.000;2024-03-08T02:18:37;16.50;;;11.40;;
3261;SDS011;1643;47.746;9.000;2024-03-08T02:21:04;16.10;;;11.10;;
3261;SDS011;1643;47.746;9.000;2024-03-08T02:23:33;17.43;;;11.03;;
3261;SDS011;1643;47.746;9.000;2024-03-08T02:25:59;19.37;;;11.57;;
3261;SDS011;1643;47.746;9.000;2024-03-08T02:28:25;16.43;;;11.03;;
3261;SDS011;1643;47.746;9.000;2024-03-08T02:30:51;14.50;;;8.97;;
3261;SDS011;1643;47.746;9.000;2024-03-08T02:33:20;16.70;;;10.30;;
3261;SDS011;1643;47.746;9.000;2024-03-08T02:35:47;19.80;;;12.00;;
3261;SDS011;1643;47.746;9.000;2024-03-08T02:38:17;19.03;;;11.67;;
3261;SDS011;1643;47.746;9.000;2024-03-08T02:40:45;17.47;;;11.37;;
3261;SDS011;1643;47.746;9.000;2024-03-08T02:43:12;19.30;;;11.73;;
3261;SDS011;1643;47.746;9.000;2024-03-08T02:45:39;16.20;;;10.70;;
3261;SDS011;1643;47.746;9.000;2024-03-08T02:48:07;19.07;;;11.93;;
3261;SDS011;1643;47.746;9.000;2024-03-08T02:50:33;16.10;;;10.93;;
3261;SDS011;1643;47.746;9.000;2024-03-08T02:53:02;17.87;;;11.73;;
3261;SDS011;1643;47.746;9.000;2024-03-08T02:55:29;16.33;;;10.20;;
3261;SDS011;1643;47.746;9.000;2024-03-08T02:57:55;17.27;;;10.53;;
3261;SDS011;1643;47.746;9.000;2024-03-08T03:00:21;18.50;;;11.70;;
3261;SDS011;1643;47.746;9.000;2024-03-08T03:02:48;18.70;;;12.57;;
3261;SDS011;1643;47.746;9.000;2024-03-08T03:05:17;19.00;;;11.67;;
3261;SDS011;1643;47.746;9.000;2024-03-08T03:07:42;17.67;;;11.43;;
3261;SDS011;1643;47.746;9.000;2024-03-08T03:10:08;17.80;;;11.17;;
3261;SDS011;1643;47.746;9.000;2024-03-08T03:12:34;17.60;;;10.90;;
3261;SDS011;1643;47.746;9.000;2024-03-08T03:14:59;16.60;;;11.03;;
3261;SDS011;1643;47.746;9.000;2024-03-08T03:17:25;21.10;;;12.70;;
3261;SDS011;1643;47.746;9.000;2024-03-08T03:19:51;18.00;;;11.53;;
3261;SDS011;1643;47.746;9.000;2024-03-08T03:22:18;18.00;;;11.23;;
3261;SDS011;1643;47.746;9.000;2024-03-08T03:24:44;17.50;;;12.30;;
3261;SDS011;1643;47.746;9.000;2024-03-08T03:27:14;17.67;;;11.13;;
3261;SDS011;1643;47.746;9.000;2024-03-08T03:29:40;18.67;;;11.10;;
3261;SDS011;1643;47.746;9.000;2024-03-08T03:32:14;20.43;;;12.53;;
3261;SDS011;1643;47.746;9.000;2024-03-08T03:34:40;20.37;;;12.83;;
3261;SDS011;1643;47.746;9.000;2024-03-08T03:37:08;17.73;;;11.53;;
3261;SDS011;1643;47.746;9.000;2024-03-08T03:39:37;21.57;;;12.60;;
3261;SDS011;1643;47.746;9.000;2024-03-08T03:42:16;19.80;;;12.40;;
3261;SDS011;1643;47.746;9.000;2024-03-08T03:44:46;20.13;;;12.00;;
3261;SDS011;1643;47.746;9.000;2024-03-08T03:47:13;17.03;;;11.87;;
3261;SDS011;1643;47.746;9.000;2024-03-08T03:49:39;19.23;;;10.70;;
3261;SDS011;1643;47.746;9.000;2024-03-08T03:52:05;20.13;;;12.07;;
3261;SDS011;1643;47.746;9.000;2024-03-08T03:54:31;19.23;;;12.70;;
3261;SDS011;1643;47.746;9.000;2024-03-08T03:56:58;21.63;;;12.63;;
3261;SDS011;1643;47.746;9.000;2024-03-08T03:59:23;18.67;;;11.90;;
3261;SDS011;1643;47.746;9.000;2024-03-08T04:01:49;20.27;;;12.00;;
3261;SDS011;1643;47.746;9.000;2024-03-08T04:04:15;14.70;;;10.57;;
3261;SDS011;1643;47.746;9.000;2024-03-08T04:06:41;16.47;;;11.87;;
3261;SDS011;1643;47.746;9.000;2024-03-08T04:09:07;17.50;;;11.13;;
3261;SDS011;1643;47.746;9.000;2024-03-08T04:11:32;18.67;;;12.33;;
3261;SDS011;1643;47.746;9.000;2024-03-08T04:13:58;21.50;;;12.70;;
3261;SDS011;1643;47.746;9.000;2024-03-08T04:16:24;18.90;;;12.57;;
3261;SDS011;1643;47.746;9.000;2024-03-08T04:18:51;18.80;;;11.70;;
3261;SDS011;1643;47.746;9.000;2024-03-08T04:21:17;18.90;;;11.20;;
3261;SDS011;1643;47.746;9.000;2024-03-08T04:23:44;19.00;;;12.40;;
3261;SDS011;1643;47.746;9.000;2024-03-08T04:26:10;21.43;;;13.30;;
3261;SDS011;1643;47.746;9.000;2024-03-08T04:28:36;18.93;;;12.33;;
3261;SDS011;1643;47.746;9.000;2024-03-08T04:31:02;19.60;;;12.20;;
3261;SDS011;1643;47.746;9.000;2024-03-08T04:33:28;15.60;;;11.07;;
3261;SDS011;1643;47.746;9.000;2024-03-08T04:35:54;19.23;;;12.00;;
3261;SDS011;1643;47.746;9.000;2024-03-08T04:38:19;21.63;;;12.90;;
3261;SDS011;1643;47.746;9.000;2024-03-08T04:40:45;21.50;;;13.60;;
3261;SDS011;1643;47.746;9.000;2024-03-08T04:43:11;21.03;;;12.20;;
3261;SDS011;1643;47.746;9.000;2024-03-08T04:45:37;17.30;;;10.90;;
3261;SDS011;1643;47.746;9.000;2024-03-08T04:48:02;19.17;;;12.57;;
3261;SDS011;1643;47.746;9.000;2024-03-08T04:50:31;17.20;;;11.23;;
3261;SDS011;1643;47.746;9.000;2024-03-08T04:52:57;23.00;;;13.57;;
3261;SDS011;1643;47.746;9.000;2024-03-08T04:55:22;18.30;;;11.87;;
3261;SDS011;1643;47.746;9.000;2024-03-08T04:57:48;22.47;;;13.63;;
3261;SDS011;1643;47.746;9.000;2024-03-08T05:00:14;18.10;;;11.97;;
3261;SDS011;1643;47.746;9.000;2024-03-08T05:02:40;18.63;;;12.10;;
3261;SDS011;1643;47.746;9.000;2024-03-08T05:05:06;21.63;;;12.67;;
3261;SDS011;1643;47.746;9.000;2024-03-08T05:07:34;18.30;;;11.80;;
3261;SDS011;1643;47.746;9.000;2024-03-08T05:10:00;18.53;;;11.27;;
3261;SDS011;1643;47.746;9.000;2024-03-08T05:12:27;20.40;;;13.20;;
3261;SDS011;1643;47.746;9.000;2024-03-08T05:14:53;18.97;;;12.80;;
3261;SDS011;1643;47.746;9.000;2024-03-08T05:17:19;18.60;;;12.10;;
3261;SDS011;1643;47.746;9.000;2024-03-08T05:19:44;18.27;;;11.93;;
3261;SDS011;1643;47.746;9.000;2024-03-08T05:22:10;19.77;;;11.83;;
3261;SDS011;1643;47.746;9.000;2024-03-08T05:24:36;20.50;;;13.00;;
3261;SDS011;1643;47.746;9.000;2024-03-08T05:27:02;22.60;;;13.13;;
3261;SDS011;1643;47.746;9.000;2024-03-08T05:29:28;18.27;;;12.20;;
3261;SDS011;1643;47.746;9.000;2024-03-08T05:31:54;23.97;;;14.70;;
3261;SDS011;1643;47.746;9.000;2024-03-08T05:34:21;18.80;;;12.60;;
3261;SDS011;1643;47.746;9.000;2024-03-08T05:36:48;20.10;;;13.43;;
3261;SDS011;1643;47.746;9.000;2024-03-08T05:39:18;20.80;;;12.67;;
3261;SDS011;1643;47.746;9.000;2024-03-08T05:41:47;21.03;;;13.17;;
3261;SDS011;1643;47.746;9.000;2024-03-08T05:44:13;22.80;;;13.93;;
3261;SDS011;1643;47.746;9.000;2024-03-08T05:46:39;22.93;;;14.07;;
3261;SDS011;1643;47.746;9.000;2024-03-08T05:49:05;21.03;;;13.50;;
3261;SDS011;1643;47.746;9.000;2024-03-08T05:51:32;24.83;;;13.60;;
3261;SDS011;1643;47.746;9.000;2024-03-08T05:54:01;24.87;;;13.70;;
3261;SDS011;1643;47.746;9.000;2024-03-08T05:56:28;19.20;;;12.90;;
3261;SDS011;1643;47.746;9.000;2024-03-08T05:58:54;22.40;;;14.30;;
3261;SDS011;1643;47.746;9.000;2024-03-08T06:01:20;21.70;;;13.67;;
3261;SDS011;1643;47.746;9.000;2024-03-08T06:03:46;21.90;;;13.00;;
3261;SDS011;1643;47.746;9.000;2024-03-08T06:06:14;20.17;;;13.53;;
3261;SDS011;1643;47.746;9.000;2024-03-08T06:08:43;21.47;;;13.40;;
3261;SDS011;1643;47.746;9.000;2024-03-08T06:11:09;21.00;;;14.13;;
3261;SDS011;1643;47.746;9.000;2024-03-08T06:13:35;20.20;;;12.13;;
3261;SDS011;1643;47.746;9.000;2024-03-08T06:16:01;24.90;;;14.23;;
3261;SDS011;1643;47.746;9.000;2024-03-08T06:18:30;27.70;;;16.13;;
3261;SDS011;1643;47.746;9.000;2024-03-08T06:20:56;23.50;;;14.37;;
3261;SDS011;1643;47.746;9.000;2024-03-08T06:23:22;19.97;;;12.93;;
3261;SDS011;1643;47.746;9.000;2024-03-08T06:25:48;20.83;;;14.10;;
3261;SDS011;1643;47.746;9.000;2024-03-08T06:28:14;19.37;;;12.20;;
3261;SDS011;1643;47.746;9.000;2024-03-08T06:30:39;18.87;;;12.00;;
3261;SDS011;1643;47.746;9.000;2024-03-08T06:33:05;20.93;;;13.07;;
3261;SDS011;1643;47.746;9.000;2024-03-08T06:35:32;19.10;;;12.77;;
3261;SDS011;1643;47.746;9.000;2024-03-08T06:38:00;25.53;;;13.83;;
3261;SDS011;1643;47.746;9.000;2024-03-08T06:40:26;17.10;;;11.03;;
3261;SDS011;1643;47.746;9.000;2024-03-08T06:42:52;22.83;;;13.13;;
3261;SDS011;1643;47.746;9.000;2024-03-08T06:45:17;23.20;;;12.93;;
3261;SDS011;1643;47.746;9.000;2024-03-08T06:47:46;21.07;;;13.30;;
3261;SDS011;1643;47.746;9.000;2024-03-08T06:50:12;22.60;;;13.20;;
3261;SDS011;1643;47.746;9.000;2024-03-08T06:52:38;19.83;;;13.20;;
3261;SDS011;1643;47.746;9.000;2024-03-08T06:55:05;21.80;;;13.40;;
3261;SDS011;1643;47.746;9.000;2024-03-08T06:57:31;20.77;;;12.23;;
3261;SDS011;1643;47.746;9.000;2024-03-08T06:59:57;23.00;;;13.40;;
3261;SDS011;1643;47.746;9.000;2024-03-08T07:02:23;23.63;;;12.50;;
3261;SDS011;1643;47.746;9.000;2024-03-08T07:04:52;22.87;;;13.93;;
3261;SDS011;1643;47.746;9.000;2024-03-08T07:07:18;22.77;;;12.70;;
3261;SDS011;1643;47.746;9.000;2024-03-08T07:09:45;24.20;;;14.07;;
3261;SDS011;1643;47.746;9.000;2024-03-08T07:12:11;20.90;;;13.73;;
3261;SDS011;1643;47.746;9.000;2024-03-08T07:14:38;23.30;;;13.73;;
3261;SDS011;1643;47.746;9.000;2024-03-08T07:17:10;19.83;;;12.73;;
3261;SDS011;1643;47.746;9.000;2024-03-08T07:19:36;19.47;;;12.70;;
3261;SDS011;1643;47.746;9.000;2024-03-08T07:22:03;24.70;;;13.80;;
3261;SDS011;1643;47.746;9.000;2024-03-08T07:24:30;22.90;;;13.90;;
3261;SDS011;1643;47.746;9.000;2024-03-08T07:27:17;24.70;;;14.13;;
3261;SDS011;1643;47.746;9.000;2024-03-08T07:29:43;24.00;;;13.87;;
3261;SDS011;1643;47.746;9.000;2024-03-08T07:32:09;21.13;;;13.20;;
3261;SDS011;1643;47.746;9.000;2024-03-08T07:34:44;19.93;;;11.70;;
3261;SDS011;1643;47.746;9.000;2024-03-08T07:37:09;20.40;;;11.33;;
3261;SDS011;1643;47.746;9.000;2024-03-08T07:39:36;22.50;;;12.67;;
3261;SDS011;1643;47.746;9.000;2024-03-08T07:42:03;22.17;;;11.93;;
3261;SDS011;1643;47.746;9.000;2024-03-08T07:44:29;21.03;;;13.70;;
3261;SDS011;1643;47.746;9.000;2024-03-08T07:46:56;20.53;;;12.47;;
3261;SDS011;1643;47.746;9.000;2024-03-08T07:49:22;20.50;;;11.23;;
3261;SDS011;1643;47.746;9.000;2024-03-08T07:51:48;20.73;;;12.60;;
3261;SDS011;1643;47.746;9.000;2024-03-08T07:54:14;19.83;;;13.43;;
3261;SDS011;1643;47.746;9.000;2024-03-08T07:56:40;22.03;;;13.90;;
3261;SDS011;1643;47.746;9.000;2024-03-08T07:59:07;22.83;;;13.10;;
3261;SDS011;1643;47.746;9.000;2024-03-08T08:01:33;27.03;;;14.37;;
3261;SDS011;1643;47.746;9.000;2024-03-08T08:03:59;28.20;;;17.87;;
3261;SDS011;1643;47.746;9.000;2024-03-08T08:06:26;27.53;;;17.73;;
3261;SDS011;1643;47.746;9.000;2024-03-08T08:08:52;23.70;;;14.87;;
3261;SDS011;1643;47.746;9.000;2024-03-08T08:11:18;31.57;;;16.53;;
3261;SDS011;1643;47.746;9.000;2024-03-08T08:13:45;47.53;;;22.97;;
3261;SDS011;1643;47.746;9.000;2024-03-08T08:16:10;36.27;;;18.33;;
3261;SDS011;1643;47.746;9.000;2024-03-08T08:18:38;37.90;;;19.03;;
3261;SDS011;1643;47.746;9.000;2024-03-08T08:21:04;25.27;;;15.77;;
3261;SDS011;1643;47.746;9.000;2024-03-08T08:23:33;30.87;;;17.63;;
3261;SDS011;1643;47.746;9.000;2024-03-08T08:25:59;23.00;;;13.90;;
3261;SDS011;1643;47.746;9.000;2024-03-08T08:28:26;25.43;;;15.00;;
3261;SDS011;1643;47.746;9.000;2024-03-08T08:30:52;24.80;;;14.77;;
3261;SDS011;1643;47.746;9.000;2024-03-08T08:33:17;21.93;;;12.87;;
3261;SDS011;1643;47.746;9.000;2024-03-08T08:35:44;27.30;;;14.77;;
3261;SDS011;1643;47.746;9.000;2024-03-08T08:38:10;19.43;;;11.47;;
3261;SDS011;1643;47.746;9.000;2024-03-08T08:40:36;23.00;;;13.00;;
3261;SDS011;1643;47.746;9.000;2024-03-08T08:43:02;21.83;;;12.80;;
3261;SDS011;1643;47.746;9.000;2024-03-08T08:45:32;19.90;;;12.47;;
3261;SDS011;1643;47.746;9.000;2024-03-08T08:47:58;21.40;;;12.70;;
3261;SDS011;1643;47.746;9.000;2024-03-08T08:50:24;20.17;;;12.00;;
3261;SDS011;1643;47.746;9.000;2024-03-08T08:52:53;17.43;;;11.87;;
3261;SDS011;1643;47.746;9.000;2024-03-08T08:55:19;19.50;;;12.00;;
3261;SDS011;1643;47.746;9.000;2024-03-08T08:57:50;18.80;;;11.43;;
3261;SDS011;1643;47.746;9.000;2024-03-08T09:00:19;21.07;;;11.40;;
3261;SDS011;1643;47.746;9.000;2024-03-08T09:02:45;20.50;;;12.53;;
3261;SDS011;1643;47.746;9.000;2024-03-08T09:05:12;16.70;;;11.90;;
3261;SDS011;1643;47.746;9.000;2024-03-08T09:07:39;20.73;;;12.73;;
3261;SDS011;1643;47.746;9.000;2024-03-08T09:10:05;20.67;;;11.97;;
3261;SDS011;1643;47.746;9.000;2024-03-08T09:12:32;20.40;;;11.23;;
3261;SDS011;1643;47.746;9.000;2024-03-08T09:14:58;21.23;;;11.90;;
3261;SDS011;1643;47.746;9.000;2024-03-08T09:17:24;24.40;;;12.23;;
3261;SDS011;1643;47.746;9.000;2024-03-08T09:19:50;19.43;;;12.20;;
3261;SDS011;1643;47.746;9.000;2024-03-08T09:22:16;17.90;;;11.63;;
3261;SDS011;1643;47.746;9.000;2024-03-08T09:24:43;17.73;;;11.60;;
3261;SDS011;1643;47.746;9.000;2024-03-08T09:27:08;18.20;;;11.77;;
3261;SDS011;1643;47.746;9.000;2024-03-08T09:29:38;17.57;;;10.70;;
3261;SDS011;1643;47.746;9.000;2024-03-08T09:32:05;19.60;;;12.10;;
3261;SDS011;1643;47.746;9.000;2024-03-08T09:34:30;21.00;;;11.60;;
3261;SDS011;1643;47.746;9.000;2024-03-08T09:36:56;21.17;;;12.90;;
3261;SDS011;1643;47.746;9.000;2024-03-08T09:39:22;15.30;;;10.23;;
3261;SDS011;1643;47.746;9.000;2024-03-08T09:41:48;27.10;;;13.83;;
3261;SDS011;1643;47.746;9.000;2024-03-08T09:44:14;22.10;;;12.93;;
3261;SDS011;1643;47.746;9.000;2024-03-08T09:46:40;17.47;;;11.37;;
3261;SDS011;1643;47.746;9.000;2024-03-08T09:49:12;21.73;;;12.70;;
3261;SDS011;1643;47.746;9.000;2024-03-08T09:51:37;25.73;;;14.50;;
3261;SDS011;1643;47.746;9.000;2024-03-08T09:54:05;17.90;;;10.70;;
3261;SDS011;1643;47.746;9.000;2024-03-08T09:56:32;22.33;;;13.50;;
3261;SDS011;1643;47.746;9.000;2024-03-08T09:59:00;29.10;;;16.07;;
3261;SDS011;1643;47.746;9.000;2024-03-08T10:01:45;24.67;;;13.47;;
3261;SDS011;1643;47.746;9.000;2024-03-08T10:04:11;23.63;;;15.30;;
3261;SDS011;1643;47.746;9.000;2024-03-08T10:06:39;22.27;;;12.43;;
3261;SDS011;1643;47.746;9.000;2024-03-08T10:09:05;18.73;;;10.90;;
3261;SDS011;1643;47.746;9.000;2024-03-08T10:11:33;17.40;;;10.77;;
3261;SDS011;1643;47.746;9.000;2024-03-08T10:14:00;14.97;;;9.83;;
3261;SDS011;1643;47.746;9.000;2024-03-08T10:16:27;13.57;;;8.73;;
3261;SDS011;1643;47.746;9.000;2024-03-08T10:18:53;14.80;;;10.37;;
3261;SDS011;1643;47.746;9.000;2024-03-08T10:21:21;15.40;;;9.70;;
3261;SDS011;1643;47.746;9.000;2024-03-08T10:23:47;12.60;;;8.07;;
3261;SDS011;1643;47.746;9.000;2024-03-08T10:26:14;12.93;;;8.10;;
3261;SDS011;1643;47.746;9.000;2024-03-08T10:28:42;13.97;;;8.87;;
3261;SDS011;1643;47.746;9.000;2024-03-08T10:31:09;12.10;;;7.67;;
3261;SDS011;1643;47.746;9.000;2024-03-08T10:33:35;14.40;;;9.30;;
3261;SDS011;1643;47.746;9.000;2024-03-08T10:36:00;12.93;;;8.93;;
3261;SDS011;1643;47.746;9.000;2024-03-08T10:38:26;13.03;;;8.20;;
3261;SDS011;1643;47.746;9.000;2024-03-08T10:40:54;11.17;;;6.80;;
3261;SDS011;1643;47.746;9.000;2024-03-08T10:43:22;11.90;;;7.63;;
3261;SDS011;1643;47.746;9.000;2024-03-08T10:45:50;12.90;;;8.20;;
3261;SDS011;1643;47.746;9.000;2024-03-08T10:48:28;13.40;;;9.03;;
3261;SDS011;1643;47.746;9.000;2024-03-08T10:50:59;13.60;;;8.73;;
3261;SDS011;1643;47.746;9.000;2024-03-08T10:53:27;29.60;;;18.53;;
3261;SDS011;1643;47.746;9.000;2024-03-08T10:55:54;30.80;;;17.77;;
3261;SDS011;1643;47.746;9.000;2024-03-08T10:58:22;17.93;;;10.80;;
3261;SDS011;1643;47.746;9.000;2024-03-08T11:00:52;17.03;;;11.37;;
3261;SDS011;1643;47.746;9.000;2024-03-08T11:06:18;18.53;;;11.63;;
3261;SDS011;1643;47.746;9.000;2024-03-08T11:08:48;18.43;;;9.83;;
3261;SDS011;1643;47.746;9.000;2024-03-08T11:11:23;14.23;;;8.63;;
3261;SDS011;1643;47.746;9.000;2024-03-08T11:13:52;12.60;;;8.63;;
3261;SDS011;1643;47.746;9.000;2024-03-08T11:18:54;14.50;;;9.23;;
3261;SDS011;1643;47.746;9.000;2024-03-08T11:21:29;9.57;;;7.23;;
3261;SDS011;1643;47.746;9.000;2024-03-08T11:23:59;12.10;;;8.43;;
3261;SDS011;1643;47.746;9.000;2024-03-08T11:26:25;13.33;;;8.80;;
3261;SDS011;1643;47.746;9.000;2024-03-08T11:28:51;11.30;;;8.37;;
3261;SDS011;1643;47.746;9.000;2024-03-08T11:33:48;10.50;;;7.13;;
3261;SDS011;1643;47.746;9.000;2024-03-08T11:36:21;12.80;;;8.37;;
3261;SDS011;1643;47.746;9.000;2024-03-08T11:38:48;13.80;;;7.20;;
3261;SDS011;1643;47.746;9.000;2024-03-08T11:41:23;9.23;;;7.00;;
3261;SDS011;1643;47.746;9.000;2024-03-08T11:43:50;10.17;;;7.50;;
3261;SDS011;1643;47.746;9.000;2024-03-08T11:46:30;11.20;;;7.40;;
3261;SDS011;1643;47.746;9.000;2024-03-08T11:48:56;9.80;;;7.60;;
3261;SDS011;1643;47.746;9.000;2024-03-08T11:51:22;11.17;;;7.47;;
3261;SDS011;1643;47.746;9.000;2024-03-08T11:53:49;17.60;;;8.63;;
3261;SDS011;1643;47.746;9.000;2024-03-08T11:56:15;12.60;;;8.13;;
3261;SDS011;1643;47.746;9.000;2024-03-08T11:58:45;20.43;;;13.50;;
3261;SDS011;1643;47.746;9.000;2024-03-08T12:01:18;17.57;;;11.40;;
3261;SDS011;1643;47.746;9.000;2024-03-08T12:03:44;14.50;;;9.50;;
3261;SDS011;1643;47.746;9.000;2024-03-08T12:06:17;15.93;;;10.20;;
3261;SDS011;1643;47.746;9.000;2024-03-08T12:08:43;14.53;;;9.07;;
3261;SDS011;1643;47.746;9.000;2024-03-08T12:11:08;14.23;;;8.60;;
3261;SDS011;1643;47.746;9.000;2024-03-08T12:13:35;14.70;;;9.27;;
3261;SDS011;1643;47.746;9.000;2024-03-08T12:16:03;12.70;;;8.20;;
3261;SDS011;1643;47.746;9.000;2024-03-08T12:18:33;14.13;;;8.00;;
3261;SDS011;1643;47.746;9.000;2024-03-08T12:21:12;13.27;;;9.63;;
3261;SDS011;1643;47.746;9.000;2024-03-08T12:23:45;13.60;;;9.37;;
3261;SDS011;1643;47.746;9.000;2024-03-08T12:26:16;13.67;;;8.60;;
3261;SDS011;1643;47.746;9.000;2024-03-08T12:28:43;15.80;;;9.00;;
3261;SDS011;1643;47.746;9.000;2024-03-08T12:31:13;12.87;;;8.57;;
3261;SDS011;1643;47.746;9.000;2024-03-08T12:33:51;12.37;;;8.23;;
3261;SDS011;1643;47.746;9.000;2024-03-08T12:36:18;15.47;;;9.30;;
3261;SDS011;1643;47.746;9.000;2024-03-08T12:38:45;13.90;;;8.90;;
3261;SDS011;1643;47.746;9.000;2024-03-08T12:41:14;17.13;;;9.57;;
3261;SDS011;1643;47.746;9.000;2024-03-08T12:43:42;13.23;;;8.13;;
3261;SDS011;1643;47.746;9.000;2024-03-08T12:46:13;12.70;;;8.53;;
3261;SDS011;1643;47.746;9.000;2024-03-08T12:48:39;14.60;;;9.23;;
3261;SDS011;1643;47.746;9.000;2024-03-08T12:51:08;13.97;;;8.70;;
3261;SDS011;1643;47.746;9.000;2024-03-08T12:53:35;12.77;;;9.77;;
3261;SDS011;1643;47.746;9.000;2024-03-08T12:56:00;11.90;;;8.27;;
3261;SDS011;1643;47.746;9.000;2024-03-08T12:58:27;16.20;;;9.93;;
3261;SDS011;1643;47.746;9.000;2024-03-08T13:00:52;17.70;;;9.97;;
3261;SDS011;1643;47.746;9.000;2024-03-08T13:03:18;23.73;;;13.13;;
3261;SDS011;1643;47.746;9.000;2024-03-08T13:05:43;18.80;;;12.30;;
3261;SDS011;1643;47.746;9.000;2024-03-08T13:08:09;16.00;;;10.83;;
3261;SDS011;1643;47.746;9.000;2024-03-08T13:10:39;16.37;;;11.20;;
3261;SDS011;1643;47.746;9.000;2024-03-08T13:13:05;14.00;;;10.27;;
3261;SDS011;1643;47.746;9.000;2024-03-08T13:15:30;13.00;;;9.07;;
3261;SDS011;1643;47.746;9.000;2024-03-08T13:17:56;14.80;;;9.83;;
3261;SDS011;1643;47.746;9.000;2024-03-08T13:20:25;15.23;;;10.83;;
3261;SDS011;1643;47.746;9.000;2024-03-08T13:22:53;14.77;;;9.93;;
3261;SDS011;1643;47.746;9.000;2024-03-08T13:25:19;18.43;;;12.43;;
3261;SDS011;1643;47.746;9.000;2024-03-08T13:27:45;14.87;;;11.10;;
3261;SDS011;1643;47.746;9.000;2024-03-08T13:30:11;15.80;;;11.07;;
3261;SDS011;1643;47.746;9.000;2024-03-08T13:32:42;16.50;;;10.83;;
3261;SDS011;1643;47.746;9.000;2024-03-08T13:35:10;22.83;;;11.23;;
3261;SDS011;1643;47.746;9.000;2024-03-08T13:37:42;16.40;;;11.37;;
3261;SDS011;1643;47.746;9.000;2024-03-08T13:40:08;19.07;;;12.57;;
3261;SDS011;1643;47.746;9.000;2024-03-08T13:42:39;15.70;;;11.33;;
3261;SDS011;1643;47.746;9.000;2024-03-08T13:45:06;21.33;;;12.30;;
3261;SDS011;1643;47.746;9.000;2024-03-08T13:47:35;19.30;;;12.87;;
3261;SDS011;1643;47.746;9.000;2024-03-08T13:50:02;27.40;;;15.77;;
3261;SDS011;1643;47.746;9.000;2024-03-08T13:52:29;22.30;;;13.87;;
3261;SDS011;1643;47.746;9.000;2024-03-08T13:54:54;17.97;;;11.80;;
3261;SDS011;1643;47.746;9.000;2024-03-08T13:57:21;15.10;;;10.90;;
3261;SDS011;1643;47.746;9.000;2024-03-08T13:59:47;13.90;;;10.33;;
3261;SDS011;1643;47.746;9.000;2024-03-08T14:02:14;14.97;;;11.17;;
3261;SDS011;1643;47.746;9.000;2024-03-08T14:04:40;17.97;;;11.97;;
3261;SDS011;1643;47.746;9.000;2024-03-08T14:07:07;22.17;;;14.90;;
3261;SDS011;1643;47.746;9.000;2024-03-08T14:09:33;25.67;;;13.80;;
3261;SDS011;1643;47.746;9.000;2024-03-08T14:12:02;20.63;;;12.90;;
3261;SDS011;1643;47.746;9.000;2024-03-08T14:14:32;26.73;;;15.30;;
3261;SDS011;1643;47.746;9.000;2024-03-08T14:17:00;19.70;;;12.33;;
3261;SDS011;1643;47.746;9.000;2024-03-08T14:19:27;17.13;;;12.33;;
3261;SDS011;1643;47.746;9.000;2024-03-08T14:21:53;15.70;;;10.67;;
3261;SDS011;1643;47.746;9.000;2024-03-08T14:24:19;20.13;;;13.60;;
3261;SDS011;1643;47.746;9.000;2024-03-08T14:26:45;20.53;;;13.30;;
3261;SDS011;1643;47.746;9.000;2024-03-08T14:29:13;21.20;;;12.17;;
3261;SDS011;1643;47.746;9.000;2024-03-08T14:31:39;22.00;;;13.50;;
3261;SDS011;1643;47.746;9.000;2024-03-08T14:34:08;17.20;;;11.20;;
3261;SDS011;1643;47.746;9.000;2024-03-08T14:36:34;19.70;;;11.90;;
3261;SDS011;1643;47.746;9.000;2024-03-08T14:38:59;28.70;;;17.17;;
3261;SDS011;1643;47.746;9.000;2024-03-08T14:41:25;17.27;;;12.77;;
3261;SDS011;1643;47.746;9.000;2024-03-08T14:43:52;22.33;;;13.60;;
3261;SDS011;1643;47.746;9.000;2024-03-08T14:46:22;23.73;;;13.10;;
3261;SDS011;1643;47.746;9.000;2024-03-08T14:48:51;18.73;;;12.63;;
3261;SDS011;1643;47.746;9.000;2024-03-08T14:51:19;16.57;;;10.40;;
3261;SDS011;1643;47.746;9.000;2024-03-08T14:53:51;18.53;;;12.30;;
3261;SDS011;1643;47.746;9.000;2024-03-08T14:56:17;16.17;;;10.83;;
3261;SDS011;1643;47.746;9.000;2024-03-08T14:58:43;17.97;;;10.97;;